Time;durP1;ratioP1;P1;durP2;ratioP2;P2;SDS_P1;SDS_P2;PMS_P1;PMS_P2;Temp;Humidity;BMP_temperature;BMP_pressure;BME280_temperature;BME280_humidity;BME280_pressure;Samples;Min_cycle;Max_cycle;Signal;HPM_P1;HPM_P2
2024/04/24 00:00:19;;;;;;;8.75;2.08;;;12.30;61.60;;;;;;5490619;26;20002;-71
2024/04/24 00:02:45;;;;;;;9.13;2.47;;;12.30;61.80;;;;;;5491377;26;20004;-72
2024/04/24 00:05:10;;;;;;;6.22;1.98;;;12.30;62.00;;;;;;5490776;26;19998;-73
2024/04/24 00:07:36;;;;;;;5.43;1.98;;;12.30;62.10;;;;;;5458872;26;20013;-72
2024/04/24 00:10:02;;;;;;;11.65;2.65;;;12.30;62.00;;;;;;5490495;26;19990;-72
2024/04/24 00:12:28;;;;;;;10.82;2.10;;;12.30;62.30;;;;;;5490892;26;20322;-72
2024/04/24 00:14:53;;;;;;;8.00;2.05;;;12.30;62.10;;;;;;5490581;26;20410;-72
2024/04/24 00:17:19;;;;;;;7.35;2.10;;;12.30;62.00;;;;;;5490722;26;19998;-72
2024/04/24 00:19:45;;;;;;;9.65;2.05;;;12.30;62.20;;;;;;5490537;26;20036;-72
2024/04/24 00:22:10;;;;;;;8.13;2.35;;;12.30;62.20;;;;;;5490792;26;20400;-71
2024/04/24 00:24:36;;;;;;;10.02;2.08;;;12.30;62.30;;;;;;5489962;26;19994;-71
2024/04/24 00:27:02;;;;;;;9.43;2.17;;;12.30;62.50;;;;;;5491754;26;20014;-72
2024/04/24 00:29:27;;;;;;;10.18;2.10;;;12.30;62.40;;;;;;5490316;26;19994;-72
2024/04/24 00:31:53;;;;;;;7.72;2.40;;;12.20;62.50;;;;;;5490095;26;20005;-72
2024/04/24 00:34:19;;;;;;;8.18;2.22;;;12.20;62.80;;;;;;5490239;26;19994;-71
2024/04/24 00:36:45;;;;;;;7.05;1.83;;;12.20;62.90;;;;;;5490031;26;20409;-71
2024/04/24 00:39:10;;;;;;;5.53;1.80;;;12.20;63.00;;;;;;5489868;26;20364;-72
2024/04/24 00:41:36;;;;;;;7.32;2.28;;;12.20;63.10;;;;;;5490082;26;20342;-72
2024/04/24 00:44:02;;;;;;;9.85;2.30;;;12.10;63.10;;;;;;5489760;26;20014;-73
2024/04/24 00:46:30;;;;;;;6.47;2.05;;;12.10;63.40;;;;;;5490079;26;19994;-71
2024/04/24 00:48:57;;;;;;;11.93;2.05;;;12.00;63.30;;;;;;5457524;26;20006;-73
2024/04/24 00:51:24;;;;;;;8.02;1.95;;;12.00;63.50;;;;;;5488296;26;20471;-73
2024/04/24 00:53:50;;;;;;;13.55;2.47;;;12.00;63.60;;;;;;5490183;26;20321;-73
2024/04/24 00:56:16;;;;;;;10.48;2.50;;;12.00;63.40;;;;;;5474680;26;19994;-72
2024/04/24 00:58:43;;;;;;;11.93;2.20;;;11.90;63.60;;;;;;5489624;26;19998;-73
2024/04/24 01:01:09;;;;;;;7.68;1.90;;;11.90;64.00;;;;;;5489541;26;20022;-71
2024/04/24 01:03:35;;;;;;;6.75;2.30;;;11.90;64.00;;;;;;5490080;26;20035;-72
2024/04/24 01:06:01;;;;;;;11.25;2.20;;;11.90;64.10;;;;;;5489745;26;19993;-72
2024/04/24 01:08:26;;;;;;;11.55;2.13;;;11.80;64.20;;;;;;5489826;26;20002;-71
2024/04/24 01:10:59;;;;;;;8.55;2.15;;;11.80;64.20;;;;;;5489707;26;20348;-71
2024/04/24 01:13:25;;;;;;;10.98;2.03;;;11.80;64.50;;;;;;5489482;26;20345;-71
2024/04/24 01:16:03;;;;;;;6.28;1.92;;;11.80;64.80;;;;;;5489833;26;19994;-71
2024/04/24 01:18:31;;;;;;;7.10;2.22;;;11.80;65.10;;;;;;5489463;26;20010;-73
2024/04/24 01:20:59;;;;;;;5.45;1.90;;;11.80;64.70;;;;;;5489706;26;19994;-70
2024/04/24 01:23:49;;;;;;;9.80;2.42;;;11.70;64.80;;;;;;5489582;26;20136;-72
2024/04/24 01:26:27;;;;;;;9.88;2.58;;;11.80;65.70;;;;;;5489551;26;19994;-71
2024/04/24 01:28:54;;;;;;;8.60;2.15;;;11.80;65.20;;;;;;5457727;26;19994;-71
2024/04/24 01:31:20;;;;;;;9.35;2.92;;;11.70;65.20;;;;;;5489162;26;19994;-71
2024/04/24 01:33:45;;;;;;;9.60;2.42;;;11.70;65.50;;;;;;5457260;26;20330;-72
2024/04/24 01:36:11;;;;;;;8.98;2.30;;;11.80;65.50;;;;;;5457172;26;20013;-72
2024/04/24 01:38:37;;;;;;;10.20;2.60;;;11.90;66.00;;;;;;5489926;26;19994;-72
2024/04/24 01:41:02;;;;;;;9.27;2.10;;;11.90;65.60;;;;;;5456868;26;20012;-72
2024/04/24 01:43:28;;;;;;;8.10;1.90;;;11.90;65.60;;;;;;5489239;26;20008;-72
2024/04/24 01:45:54;;;;;;;7.13;2.10;;;11.90;65.70;;;;;;5457021;26;20039;-71
2024/04/24 01:48:19;;;;;;;9.60;2.65;;;11.90;65.60;;;;;;5489259;26;20005;-72
2024/04/24 01:50:45;;;;;;;12.02;2.05;;;11.90;65.70;;;;;;5489041;26;20336;-71
2024/04/24 01:53:11;;;;;;;7.95;2.28;;;11.80;66.40;;;;;;5488922;26;20443;-71
2024/04/24 01:55:36;;;;;;;13.80;4.30;;;11.70;66.30;;;;;;5489496;26;20025;-71
2024/04/24 01:58:02;;;;;;;12.30;3.30;;;11.50;66.60;;;;;;5488962;26;20367;-71
2024/04/24 02:00:28;;;;;;;7.03;2.50;;;11.40;67.20;;;;;;5488995;26;20043;-71
2024/04/24 02:02:54;;;;;;;7.28;2.53;;;11.30;67.00;;;;;;5488539;26;19998;-71
2024/04/24 02:05:19;;;;;;;11.85;2.42;;;11.20;67.60;;;;;;5489112;26;20005;-73
2024/04/24 02:07:45;;;;;;;6.15;1.95;;;11.20;67.80;;;;;;5489062;26;20010;-71
2024/04/24 02:10:11;;;;;;;9.60;2.60;;;11.10;68.20;;;;;;5488917;26;20024;-72
2024/04/24 02:12:36;;;;;;;11.43;3.00;;;11.10;68.50;;;;;;5427005;26;20152;-71
2024/04/24 02:15:02;;;;;;;5.90;2.33;;;11.20;68.40;;;;;;5488812;26;19994;-71
2024/04/24 02:17:28;;;;;;;6.75;2.50;;;11.20;68.30;;;;;;5489259;26;20005;-72
2024/04/24 02:19:53;;;;;;;7.45;2.60;;;11.30;68.40;;;;;;5488758;26;20005;-73
2024/04/24 02:22:19;;;;;;;15.02;2.47;;;11.30;68.40;;;;;;5456330;26;20027;-70
2024/04/24 02:27:29;;;;;;;;;;;11.30;68.80;;;;;;5489522;26;20009;-72
2024/04/24 02:29:54;;;;;;;9.02;2.38;;;11.30;68.80;;;;;;5490217;26;19924;-72
2024/04/24 02:32:20;;;;;;;8.88;2.60;;;11.40;68.40;;;;;;5488592;26;19990;-73
2024/04/24 02:34:46;;;;;;;9.52;2.47;;;11.40;68.20;;;;;;5488677;26;20002;-71
2024/04/24 02:37:11;;;;;;;11.63;2.78;;;11.40;68.60;;;;;;5488670;26;20005;-71
2024/04/24 02:39:37;;;;;;;13.00;2.75;;;11.40;68.80;;;;;;5489192;26;19990;-72
2024/04/24 02:42:03;;;;;;;7.65;2.50;;;11.40;69.00;;;;;;5488391;26;20517;-72
2024/04/24 02:44:28;;;;;;;6.95;2.70;;;11.40;69.40;;;;;;5488417;26;19994;-71
2024/04/24 02:46:54;;;;;;;8.10;3.00;;;11.30;69.30;;;;;;5455844;26;19990;-71
2024/04/24 02:49:20;;;;;;;13.25;2.67;;;11.10;69.60;;;;;;5488144;26;20000;-71
2024/04/24 02:51:45;;;;;;;9.30;2.53;;;11.10;70.90;;;;;;5488926;26;20013;-72
2024/04/24 02:54:11;;;;;;;9.75;2.35;;;10.90;71.00;;;;;;5487703;26;20001;-72
2024/04/24 02:56:36;;;;;;;12.57;2.90;;;10.80;71.40;;;;;;5488353;26;20010;-72
2024/04/24 02:59:02;;;;;;;10.40;3.03;;;10.80;71.80;;;;;;5488258;26;19993;-71
2024/04/24 03:01:28;;;;;;;9.70;2.83;;;10.80;71.70;;;;;;5487989;26;19994;-72
2024/04/24 03:03:53;;;;;;;7.05;2.67;;;10.80;72.00;;;;;;5488143;26;20354;-71
2024/04/24 03:06:19;;;;;;;11.77;2.85;;;10.80;72.20;;;;;;5488135;26;20370;-71
2024/04/24 03:08:45;;;;;;;11.15;3.58;;;10.80;72.00;;;;;;5488326;26;20057;-71
2024/04/24 03:11:11;;;;;;;7.50;2.80;;;10.80;72.00;;;;;;5487879;26;19997;-73
2024/04/24 03:13:37;;;;;;;12.27;3.22;;;10.80;71.80;;;;;;5486360;26;20001;-72
2024/04/24 03:16:03;;;;;;;7.22;2.78;;;10.80;72.40;;;;;;5488032;26;19994;-71
2024/04/24 03:18:28;;;;;;;11.65;2.97;;;10.80;72.70;;;;;;5487898;26;20009;-72
2024/04/24 03:20:54;;;;;;;11.93;3.13;;;10.70;72.30;;;;;;5487800;26;20416;-72
2024/04/24 03:23:20;;;;;;;10.00;3.05;;;10.70;72.60;;;;;;5455508;26;20066;-72
2024/04/24 03:25:45;;;;;;;9.32;3.22;;;10.70;73.20;;;;;;5487844;26;20446;-72
2024/04/24 03:28:11;;;;;;;18.75;5.40;;;10.60;73.50;;;;;;5455594;26;20001;-71
2024/04/24 03:30:37;;;;;;;10.32;3.25;;;10.50;73.40;;;;;;5488227;26;20005;-72
2024/04/24 03:33:02;;;;;;;9.20;3.22;;;10.50;73.40;;;;;;5488473;26;20306;-72
2024/04/24 03:35:28;;;;;;;8.15;3.10;;;10.50;73.90;;;;;;5487450;26;19994;-72
2024/04/24 03:37:53;;;;;;;7.70;2.58;;;10.50;73.70;;;;;;5487757;26;19993;-71
2024/04/24 03:40:19;;;;;;;10.20;3.20;;;10.50;73.80;;;;;;5455176;26;19990;-72
2024/04/24 03:42:45;;;;;;;8.98;2.70;;;10.50;73.70;;;;;;5487690;26;19994;-71
2024/04/24 03:45:11;;;;;;;13.65;3.67;;;10.40;74.20;;;;;;5487009;26;20321;-73
2024/04/24 03:47:36;;;;;;;11.18;3.40;;;10.40;74.00;;;;;;5454935;26;20438;-73
2024/04/24 03:50:02;;;;;;;12.75;3.80;;;10.40;74.20;;;;;;5488120;26;20395;-72
2024/04/24 03:52:28;;;;;;;7.47;2.90;;;10.40;74.20;;;;;;5455186;26;19994;-72
2024/04/24 03:54:53;;;;;;;10.80;3.30;;;10.50;74.70;;;;;;5487710;26;20427;-72
2024/04/24 03:57:19;;;;;;;11.70;2.97;;;10.50;74.90;;;;;;5486792;26;20373;-71
2024/04/24 03:59:45;;;;;;;8.38;2.80;;;10.40;75.00;;;;;;5454604;26;20318;-71
2024/04/24 04:02:10;;;;;;;12.82;3.30;;;10.40;75.30;;;;;;5487218;26;20325;-71
2024/04/24 04:04:36;;;;;;;9.07;3.28;;;10.30;75.50;;;;;;5486881;26;20363;-71
2024/04/24 04:07:01;;;;;;;11.90;3.47;;;10.40;75.90;;;;;;5487074;26;19998;-71
2024/04/24 04:09:27;;;;;;;7.60;2.97;;;10.20;75.40;;;;;;5487339;26;19990;-72
2024/04/24 04:11:53;;;;;;;11.18;2.92;;;10.00;76.30;;;;;;5486928;26;20388;-72
2024/04/24 04:14:18;;;;;;;12.25;4.18;;;9.90;77.60;;;;;;5486949;26;19990;-73
2024/04/24 04:16:44;;;;;;;7.88;2.88;;;9.90;78.50;;;;;;5486594;26;20307;-73
2024/04/24 04:19:10;;;;;;;12.00;3.30;;;9.90;77.60;;;;;;5486497;26;20434;-70
2024/04/24 04:21:35;;;;;;;10.85;3.35;;;9.90;78.00;;;;;;5454046;26;19994;-70
2024/04/24 04:24:01;;;;;;;10.38;3.65;;;9.90;78.90;;;;;;5486782;26;19990;-72
2024/04/24 04:26:27;;;;;;;11.00;3.00;;;9.90;79.10;;;;;;5490167;26;19990;-71
2024/04/24 04:28:52;;;;;;;6.45;2.80;;;10.00;77.30;;;;;;5490188;26;20002;-71
2024/04/24 04:31:18;;;;;;;11.90;3.72;;;10.00;76.80;;;;;;5490390;26;20018;-71
2024/04/24 04:33:45;;;;;;;6.35;2.13;;;10.00;77.60;;;;;;5490028;26;20013;-72
2024/04/24 04:36:11;;;;;;;5.70;1.80;;;10.00;77.10;;;;;;5489561;26;20342;-70
2024/04/24 04:38:37;;;;;;;5.72;1.90;;;10.00;77.20;;;;;;5491416;26;20062;-74
2024/04/24 04:41:03;;;;;;;7.72;2.35;;;9.90;77.90;;;;;;5490849;26;20161;-71
2024/04/24 04:43:29;;;;;;;6.88;1.63;;;9.90;78.90;;;;;;5490000;26;20088;-73
2024/04/24 04:45:55;;;;;;;6.95;1.65;;;9.90;77.80;;;;;;5489991;26;20355;-73
2024/04/24 04:48:21;;;;;;;3.55;1.63;;;10.00;76.90;;;;;;5457622;26;19994;-71
2024/04/24 04:50:46;;;;;;;4.10;1.60;;;10.10;76.20;;;;;;5489749;26;20341;-72
2024/04/24 04:53:12;;;;;;;6.07;2.28;;;10.20;75.20;;;;;;5489577;26;19998;-72
2024/04/24 04:55:37;;;;;;;6.13;2.30;;;10.30;75.40;;;;;;5490257;26;19998;-72
2024/04/24 04:58:03;;;;;;;7.20;2.70;;;10.30;75.70;;;;;;5489591;26;20333;-72
2024/04/24 05:00:29;;;;;;;10.73;3.35;;;10.30;76.70;;;;;;5489619;26;20001;-73
2024/04/24 05:02:55;;;;;;;7.90;2.88;;;10.30;76.40;;;;;;5489842;26;20005;-71
2024/04/24 05:05:20;;;;;;;8.88;3.13;;;10.30;76.80;;;;;;5489794;26;20002;-72
2024/04/24 05:07:46;;;;;;;8.43;2.58;;;10.30;77.20;;;;;;5489878;26;19990;-72
2024/04/24 05:10:12;;;;;;;10.57;2.65;;;10.30;76.90;;;;;;5489665;26;20015;-72
2024/04/24 05:12:38;;;;;;;6.32;2.30;;;10.30;77.50;;;;;;5490076;26;20087;-73
2024/04/24 05:15:04;;;;;;;8.65;2.88;;;10.20;77.30;;;;;;5490353;26;20402;-72
2024/04/24 05:17:31;;;;;;;6.82;2.30;;;10.20;78.00;;;;;;5490152;26;20070;-72
2024/04/24 05:19:56;;;;;;;7.22;2.78;;;10.20;77.50;;;;;;5490132;26;20329;-72
2024/04/24 05:22:23;;;;;;;8.32;2.97;;;10.30;77.40;;;;;;5489200;26;19994;-72
2024/04/24 05:24:48;;;;;;;7.10;2.38;;;10.40;77.40;;;;;;5488980;26;20034;-72
2024/04/24 05:29:58;;;;;;;6.45;1.90;;;10.50;77.70;;;;;;5489413;26;20349;-73
2024/04/24 05:32:24;;;;;;;5.38;2.38;;;10.60;76.30;;;;;;5489459;26;19994;-72
2024/04/24 05:34:50;;;;;;;9.35;4.80;;;10.80;75.60;;;;;;5489639;26;20076;-72
2024/04/24 05:37:15;;;;;;;6.07;2.20;;;10.90;75.20;;;;;;5456183;26;19994;-72
2024/04/24 05:39:41;;;;;;;6.90;2.38;;;11.00;74.70;;;;;;5489413;26;20001;-72
2024/04/24 05:42:07;;;;;;;7.40;2.25;;;11.10;74.40;;;;;;5489379;26;20049;-73
2024/04/24 05:44:34;;;;;;;10.13;5.53;;;11.10;73.80;;;;;;5489426;26;20062;-73
2024/04/24 05:47:06;;;;;;;8.15;2.90;;;11.20;74.00;;;;;;5457209;26;20009;-73
2024/04/24 05:49:31;;;;;;;7.53;2.75;;;11.60;73.50;;;;;;5489312;26;20002;-72
2024/04/24 05:51:57;;;;;;;6.50;2.20;;;12.70;72.30;;;;;;5490207;26;20313;-72
2024/04/24 05:54:23;;;;;;;5.20;2.20;;;14.30;68.60;;;;;;5489535;26;20066;-72
2024/04/24 05:56:48;;;;;;;6.97;2.03;;;15.40;64.50;;;;;;5489197;26;20006;-73
2024/04/24 05:59:14;;;;;;;5.10;1.90;;;15.40;63.20;;;;;;5489085;26;19994;-72
2024/04/24 06:01:40;;;;;;;5.38;1.63;;;15.30;63.50;;;;;;5489175;26;20067;-72
2024/04/24 06:04:05;;;;;;;6.13;1.70;;;14.80;63.80;;;;;;5489512;26;20564;-72
2024/04/24 06:06:31;;;;;;;3.30;1.55;;;14.60;64.90;;;;;;5457129;26;20005;-72
2024/04/24 06:08:57;;;;;;;4.20;1.80;;;14.50;65.20;;;;;;5489057;26;20005;-74
2024/04/24 06:11:22;;;;;;;6.47;2.00;;;14.00;65.80;;;;;;5489089;26;19994;-73
2024/04/24 06:13:48;;;;;;;7.80;2.63;;;13.50;67.10;;;;;;5489201;26;20034;-73
2024/04/24 06:16:14;;;;;;;5.72;2.20;;;13.20;68.40;;;;;;5488811;26;19998;-72
2024/04/24 06:18:39;;;;;;;6.32;2.00;;;12.80;69.10;;;;;;5489064;26;19994;-72
2024/04/24 06:21:05;;;;;;;5.38;2.17;;;12.60;69.50;;;;;;5489100;26;19998;-73
2024/04/24 06:23:31;;;;;;;7.35;2.22;;;12.40;70.00;;;;;;5488972;26;20004;-73
2024/04/24 06:25:56;;;;;;;4.10;2.00;;;12.50;70.20;;;;;;5488877;26;20426;-73
2024/04/24 06:28:22;;;;;;;5.50;2.45;;;13.10;69.80;;;;;;5489029;26;20059;-73
2024/04/24 06:30:47;;;;;;;7.95;4.05;;;14.40;67.50;;;;;;5488637;26;20467;-71
2024/04/24 06:33:13;;;;;;;6.63;2.50;;;16.30;63.50;;;;;;5488456;26;20005;-72
2024/04/24 06:35:39;;;;;;;4.90;1.88;;;17.90;60.50;;;;;;5488740;26;20002;-73
2024/04/24 06:38:05;;;;;;;4.88;1.95;;;19.20;57.90;;;;;;5489117;26;19995;-72
2024/04/24 06:40:30;;;;;;;10.35;2.65;;;20.20;55.40;;;;;;5488736;26;20044;-72
2024/04/24 06:42:56;;;;;;;6.10;2.25;;;21.00;52.70;;;;;;5489385;26;19998;-73
2024/04/24 06:45:22;;;;;;;5.40;2.30;;;21.60;52.60;;;;;;5489173;26;19998;-73
2024/04/24 06:47:47;;;;;;;8.07;2.40;;;22.20;51.10;;;;;;5489035;26;19998;-73
2024/04/24 06:50:13;;;;;;;9.07;2.03;;;22.20;50.20;;;;;;5489324;26;19998;-73
2024/04/24 06:52:39;;;;;;;7.18;2.00;;;22.30;49.70;;;;;;5456445;26;20004;-72
2024/04/24 06:55:05;;;;;;;6.82;1.63;;;22.90;49.00;;;;;;5488381;26;20012;-72
2024/04/24 06:57:31;;;;;;;3.30;1.80;;;22.90;48.50;;;;;;5488988;26;20002;-73
2024/04/24 06:59:57;;;;;;;3.78;1.52;;;23.10;48.80;;;;;;5489253;26;20030;-72
2024/04/24 07:02:22;;;;;;;6.93;2.08;;;23.30;48.40;;;;;;5488340;26;20008;-73
2024/04/24 07:04:48;;;;;;;4.20;1.90;;;23.40;47.80;;;;;;5487972;26;20040;-74
2024/04/24 07:07:13;;;;;;;12.18;2.17;;;23.40;47.90;;;;;;5487999;26;20009;-71
2024/04/24 07:09:39;;;;;;;14.57;2.20;;;23.40;47.70;;;;;;5488107;26;20009;-73
2024/04/24 07:12:05;;;;;;;6.43;2.10;;;23.80;47.30;;;;;;5488345;26;19998;-73
2024/04/24 07:14:30;;;;;;;5.80;1.95;;;23.70;46.80;;;;;;5487974;26;20009;-73
2024/04/24 07:16:56;;;;;;;4.93;2.17;;;23.10;47.30;;;;;;5487483;26;20447;-74
2024/04/24 07:19:22;;;;;;;6.30;2.22;;;22.60;48.10;;;;;;5487624;26;20002;-73
2024/04/24 07:21:47;;;;;;;11.15;2.92;;;22.30;48.20;;;;;;5488125;26;20434;-73
2024/04/24 07:24:13;;;;;;;13.98;2.80;;;21.20;49.40;;;;;;5455778;26;19994;-73
2024/04/24 07:26:41;;;;;;;16.10;3.38;;;20.30;50.70;;;;;;5487790;26;19998;-74
2024/04/24 07:29:07;;;;;;;8.15;2.17;;;19.70;51.60;;;;;;5487590;26;20010;-73
2024/04/24 07:31:33;;;;;;;7.32;2.00;;;19.00;51.80;;;;;;5487433;26;20071;-74
2024/04/24 07:34:00;;;;;;;6.28;1.90;;;18.40;52.50;;;;;;5488069;26;20795;-74
2024/04/24 07:36:26;;;;;;;8.23;1.85;;;17.90;52.90;;;;;;5486985;26;20005;-75
2024/04/24 07:38:51;;;;;;;7.10;2.20;;;17.70;54.10;;;;;;5487987;26;20362;-74
2024/04/24 07:41:18;;;;;;;6.35;1.98;;;17.70;54.60;;;;;;5487419;26;20005;-76
2024/04/24 07:43:45;;;;;;;5.35;1.75;;;17.60;54.90;;;;;;5487405;26;20441;-73
2024/04/24 07:46:10;;;;;;;4.93;1.88;;;17.60;54.10;;;;;;5455741;26;20498;-73
2024/04/24 07:48:36;;;;;;;5.35;1.65;;;17.70;53.70;;;;;;5487440;26;20006;-74
2024/04/24 07:51:02;;;;;;;8.73;2.10;;;17.70;53.30;;;;;;5487589;26;20128;-74
2024/04/24 07:53:27;;;;;;;6.65;1.65;;;17.80;52.80;;;;;;5487251;26;20457;-74
2024/04/24 07:55:53;;;;;;;7.57;1.70;;;17.80;52.20;;;;;;5486868;26;20026;-73
2024/04/24 07:58:19;;;;;;;3.38;1.42;;;17.90;52.00;;;;;;5486647;26;20068;-73
2024/04/24 08:00:44;;;;;;;2.65;1.00;;;17.90;51.90;;;;;;5489867;26;20022;-73
2024/04/24 08:03:10;;;;;;;3.95;1.42;;;18.00;51.70;;;;;;5490524;26;20379;-73
2024/04/24 08:05:36;;;;;;;6.13;1.83;;;17.90;51.70;;;;;;5490916;26;20020;-74
2024/04/24 08:08:01;;;;;;;3.65;1.27;;;17.70;51.50;;;;;;5491473;26;20013;-74
2024/04/24 08:10:27;;;;;;;3.90;1.38;;;17.70;51.80;;;;;;5490814;26;20013;-74
2024/04/24 08:12:52;;;;;;;4.47;1.48;;;17.80;51.60;;;;;;5491129;26;20024;-74
2024/04/24 08:15:18;;;;;;;8.65;1.52;;;17.80;51.50;;;;;;5490610;26;19998;-74
2024/04/24 08:17:44;;;;;;;3.38;1.38;;;17.80;51.50;;;;;;5490735;26;20065;-74
2024/04/24 08:20:10;;;;;;;7.60;1.35;;;17.70;51.30;;;;;;5490850;26;20036;-73
2024/04/24 08:22:36;;;;;;;3.78;1.00;;;17.70;51.50;;;;;;5490616;26;20018;-74
2024/04/24 08:25:02;;;;;;;6.30;1.10;;;17.40;51.40;;;;;;5490883;26;20066;-73
2024/04/24 08:27:27;;;;;;;9.15;1.77;;;17.30;52.00;;;;;;5490855;26;20479;-73
2024/04/24 08:29:53;;;;;;;5.50;1.85;;;17.10;51.90;;;;;;5491011;26;20434;-73
2024/04/24 08:32:19;;;;;;;6.72;1.52;;;17.10;52.20;;;;;;5490772;26;20449;-74
2024/04/24 08:34:44;;;;;;;5.60;1.42;;;17.00;52.10;;;;;;5490873;26;19990;-75
2024/04/24 08:37:10;;;;;;;4.97;1.40;;;16.90;52.50;;;;;;5490737;26;20363;-73
2024/04/24 08:39:36;;;;;;;5.80;1.30;;;16.70;52.50;;;;;;5490993;26;20005;-74
2024/04/24 08:42:03;;;;;;;7.28;1.55;;;16.50;52.90;;;;;;5490676;26;20536;-73
2024/04/24 08:44:29;;;;;;;7.25;1.80;;;16.30;53.40;;;;;;5490158;26;20048;-74
2024/04/24 08:46:56;;;;;;;8.50;2.03;;;16.40;53.60;;;;;;5490736;26;19994;-73
2024/04/24 08:49:22;;;;;;;5.25;1.55;;;16.40;53.80;;;;;;5491058;26;19998;-73
2024/04/24 08:51:49;;;;;;;9.95;1.60;;;16.60;53.60;;;;;;5490389;26;20006;-73
2024/04/24 08:54:18;;;;;;;14.90;3.28;;;16.70;53.10;;;;;;5490186;26;20009;-73
2024/04/24 08:56:50;;;;;;;11.75;1.77;;;16.80;52.80;;;;;;5458341;26;20006;-73
2024/04/24 08:59:26;;;;;;;9.05;1.50;;;17.00;53.20;;;;;;5490402;26;20006;-74
2024/04/24 09:02:00;;;;;;;3.22;1.40;;;17.00;51.20;;;;;;5490414;26;20437;-72
2024/04/24 09:04:28;;;;;;;4.75;1.50;;;17.00;51.50;;;;;;5490524;26;20005;-73
2024/04/24 09:06:55;;;;;;;11.70;2.10;;;17.00;51.20;;;;;;5490984;26;19994;-74
2024/04/24 09:09:23;;;;;;;4.40;1.60;;;17.10;51.10;;;;;;5458412;26;19994;-74
2024/04/24 09:11:49;;;;;;;12.27;1.67;;;17.30;51.10;;;;;;5488645;26;20009;-73
2024/04/24 09:14:16;;;;;;;4.28;1.00;;;17.40;51.00;;;;;;5489941;26;20040;-72
2024/04/24 09:16:43;;;;;;;4.97;1.20;;;17.30;50.70;;;;;;5490638;26;20087;-73
2024/04/24 09:19:09;;;;;;;6.85;1.70;;;17.20;50.70;;;;;;5490472;26;20330;-73
2024/04/24 09:21:34;;;;;;;10.43;3.08;;;17.00;50.80;;;;;;5489704;26;20006;-73
2024/04/24 09:24:00;;;;;;;5.05;1.63;;;16.90;51.10;;;;;;5489507;26;20018;-75
2024/04/24 09:26:26;;;;;;;5.90;1.50;;;16.90;51.40;;;;;;5489945;26;19998;-73
2024/04/24 09:28:52;;;;;;;6.22;1.75;;;16.80;51.30;;;;;;5490324;26;19998;-73
2024/04/24 09:31:18;;;;;;;5.60;1.80;;;16.70;51.40;;;;;;5489631;26;19994;-74
2024/04/24 09:33:44;;;;;;;10.32;2.20;;;16.70;51.40;;;;;;5489742;26;20016;-73
2024/04/24 09:36:11;;;;;;;8.57;1.77;;;16.60;51.60;;;;;;5490012;26;19998;-73
2024/04/24 09:38:37;;;;;;;9.55;2.40;;;16.50;51.60;;;;;;5490112;26;19994;-73
2024/04/24 09:41:03;;;;;;;4.70;1.40;;;16.40;51.60;;;;;;5490514;26;19998;-75
2024/04/24 09:43:30;;;;;;;3.70;1.30;;;16.30;51.50;;;;;;5490782;26;20353;-73
2024/04/24 09:45:56;;;;;;;6.30;1.20;;;16.20;51.80;;;;;;5490907;26;20004;-74
2024/04/24 09:48:23;;;;;;;4.90;1.17;;;16.10;52.30;;;;;;5492487;26;20005;-73
2024/04/24 09:50:51;;;;;;;3.33;1.25;;;16.10;52.50;;;;;;5489931;26;20049;-73
2024/04/24 09:53:18;;;;;;;6.32;1.50;;;16.00;52.90;;;;;;5490050;26;19998;-74
2024/04/24 09:56:06;;;;;;;4.80;1.35;;;15.80;52.90;;;;;;5457814;26;20098;-74
2024/04/24 09:58:35;;;;;;;5.38;1.02;;;15.70;53.30;;;;;;5466507;26;20370;-73
2024/04/24 10:01:03;;;;;;;4.78;1.42;;;15.60;54.20;;;;;;5489881;26;19990;-73
2024/04/24 10:03:33;;;;;;;8.88;1.48;;;15.50;55.50;;;;;;5489589;26;20069;-73
2024/04/24 10:06:02;;;;;;;9.48;1.30;;;15.50;55.60;;;;;;5489476;26;19990;-73
2024/04/24 10:08:35;;;;;;;4.95;1.27;;;15.30;55.80;;;;;;5489667;26;20009;-73
2024/04/24 10:11:07;;;;;;;4.13;1.33;;;15.20;56.40;;;;;;5488866;26;20063;-73
2024/04/24 10:13:36;;;;;;;5.55;1.60;;;15.10;56.90;;;;;;5489838;26;20007;-75
2024/04/24 10:16:04;;;;;;;5.40;1.30;;;14.90;57.60;;;;;;5489146;26;19990;-74
2024/04/24 10:18:30;;;;;;;4.80;1.55;;;14.90;57.30;;;;;;5489250;26;20012;-74
2024/04/24 10:20:56;;;;;;;4.53;1.40;;;14.90;57.90;;;;;;5489487;26;19998;-74
2024/04/24 10:23:27;;;;;;;2.38;1.10;;;14.90;58.30;;;;;;5488906;26;20006;-73
2024/04/24 10:25:55;;;;;;;3.47;1.42;;;14.80;58.00;;;;;;5489459;26;20070;-74
2024/04/24 10:28:23;;;;;;;2.40;1.20;;;14.70;58.30;;;;;;5456825;26;20333;-73
2024/04/24 10:30:49;;;;;;;2.15;1.10;;;14.70;58.60;;;;;;5489208;26;20298;-73
2024/04/24 10:33:16;;;;;;;3.22;1.20;;;14.60;58.60;;;;;;5489438;26;19994;-73
2024/04/24 10:35:42;;;;;;;5.47;1.45;;;14.60;58.80;;;;;;5489095;26;19994;-73
2024/04/24 10:38:08;;;;;;;5.97;1.70;;;14.70;59.00;;;;;;5489313;26;20043;-74
2024/04/24 10:40:34;;;;;;;4.30;1.90;;;14.70;59.30;;;;;;5489042;26;19994;-75
2024/04/24 10:43:05;;;;;;;5.00;2.20;;;14.80;58.70;;;;;;5488936;26;19998;-73
2024/04/24 10:45:36;;;;;;;4.65;1.77;;;14.90;59.00;;;;;;5489338;26;19994;-75
2024/04/24 10:48:02;;;;;;;2.83;1.35;;;15.00;58.80;;;;;;5489333;26;20008;-74
2024/04/24 10:50:28;;;;;;;4.93;1.35;;;15.20;58.80;;;;;;5457269;26;20411;-73
2024/04/24 10:52:55;;;;;;;3.03;1.30;;;15.40;58.70;;;;;;5489328;26;20428;-74
2024/04/24 10:55:21;;;;;;;3.78;1.23;;;15.80;58.60;;;;;;5488561;26;20005;-72
2024/04/24 10:57:52;;;;;;;5.63;1.45;;;16.00;58.40;;;;;;5488309;26;19994;-73
2024/04/24 11:00:28;;;;;;;4.05;1.35;;;16.10;57.60;;;;;;5474021;26;20020;-74
2024/04/24 11:02:57;;;;;;;3.83;1.10;;;16.30;57.70;;;;;;5488514;26;20041;-73
2024/04/24 11:05:24;;;;;;;3.75;1.45;;;16.20;57.20;;;;;;5488370;26;19998;-73
2024/04/24 11:08:00;;;;;;;2.90;1.42;;;16.40;57.50;;;;;;5488848;26;19998;-73
2024/04/24 11:10:26;;;;;;;3.60;1.40;;;16.30;57.10;;;;;;5488913;26;20031;-73
2024/04/24 11:12:51;;;;;;;3.30;1.38;;;16.30;57.10;;;;;;5488563;26;20002;-73
2024/04/24 11:15:20;;;;;;;5.93;1.40;;;16.30;56.50;;;;;;5488435;26;20036;-72
2024/04/24 11:17:48;;;;;;;3.13;1.17;;;16.20;56.50;;;;;;5488812;26;20002;-74
2024/04/24 11:20:15;;;;;;;3.63;1.40;;;16.00;56.40;;;;;;5456565;26;20430;-74
2024/04/24 11:22:41;;;;;;;3.28;1.30;;;15.80;56.50;;;;;;5488704;26;19998;-74
2024/04/24 11:25:10;;;;;;;4.55;1.88;;;16.00;57.00;;;;;;5489337;26;20002;-75
2024/04/24 11:27:37;;;;;;;5.43;1.83;;;16.10;56.50;;;;;;5490017;26;19994;-75
2024/04/24 11:30:17;;;;;;;4.97;1.50;;;16.30;57.00;;;;;;5489142;26;20022;-74
2024/04/24 11:32:46;;;;;;;3.15;1.58;;;16.30;57.10;;;;;;5488521;26;19994;-74
2024/04/24 11:35:13;;;;;;;3.05;1.60;;;16.20;56.90;;;;;;5487794;26;19994;-74
2024/04/24 11:37:40;;;;;;;5.90;1.85;;;16.00;57.00;;;;;;5488506;26;20472;-73
2024/04/24 11:40:06;;;;;;;7.68;2.65;;;16.10;57.20;;;;;;5488642;26;19994;-73
2024/04/24 11:42:32;;;;;;;6.80;1.70;;;16.30;57.50;;;;;;5488421;26;19998;-76
2024/04/24 11:44:58;;;;;;;6.07;2.33;;;16.40;57.40;;;;;;5488874;26;20008;-76
2024/04/24 11:47:24;;;;;;;7.57;2.08;;;16.50;57.00;;;;;;5488730;26;19994;-74
2024/04/24 11:49:51;;;;;;;4.72;1.48;;;16.50;56.70;;;;;;5488712;26;19998;-76
2024/04/24 11:52:16;;;;;;;4.93;1.40;;;16.60;56.20;;;;;;5488166;26;20010;-76
2024/04/24 11:54:48;;;;;;;4.55;1.60;;;16.60;55.90;;;;;;5488047;26;19994;-76
2024/04/24 11:57:16;;;;;;;5.15;1.70;;;16.60;54.80;;;;;;5456554;26;19994;-76
2024/04/24 11:59:43;;;;;;;6.53;1.90;;;16.60;54.60;;;;;;5489025;26;20020;-76
2024/04/24 12:02:09;;;;;;;7.43;1.75;;;16.70;54.20;;;;;;5487646;26;20487;-76
2024/04/24 12:04:46;;;;;;;8.10;1.60;;;16.70;53.80;;;;;;5487935;26;20006;-75
2024/04/24 12:07:12;;;;;;;8.45;1.95;;;16.70;54.20;;;;;;5456970;26;19994;-74
2024/04/24 12:09:38;;;;;;;4.50;1.67;;;16.80;52.40;;;;;;5487849;26;20005;-73
2024/04/24 12:12:05;;;;;;;7.68;2.15;;;16.90;52.20;;;;;;5487645;26;19998;-74
2024/04/24 12:14:36;;;;;;;6.28;1.70;;;17.10;51.80;;;;;;5487894;26;20707;-74
2024/04/24 12:17:03;;;;;;;4.40;2.30;;;17.20;51.10;;;;;;5487856;26;20070;-74
2024/04/24 12:19:29;;;;;;;5.38;1.45;;;17.40;50.60;;;;;;5488016;26;19998;-73
2024/04/24 12:21:55;;;;;;;3.15;1.10;;;17.60;49.90;;;;;;5488372;26;19994;-74
2024/04/24 12:24:22;;;;;;;5.55;1.58;;;17.80;49.20;;;;;;5488229;26;20005;-73
2024/04/24 12:26:49;;;;;;;2.65;1.40;;;18.10;48.70;;;;;;5456187;26;19998;-73
2024/04/24 12:29:14;;;;;;;3.80;1.10;;;18.30;48.10;;;;;;5488195;26;19994;-74
2024/04/24 12:31:41;;;;;;;3.63;1.10;;;18.40;48.00;;;;;;5487992;26;20457;-75
2024/04/24 12:34:06;;;;;;;7.45;1.20;;;18.60;48.00;;;;;;5454864;26;19998;-75
2024/04/24 12:36:36;;;;;;;2.38;0.93;;;18.70;47.90;;;;;;5454800;26;19998;-74
2024/04/24 12:39:06;;;;;;;5.00;1.40;;;18.80;47.50;;;;;;5455116;26;20062;-75
2024/04/24 12:41:35;;;;;;;2.03;0.90;;;18.90;47.70;;;;;;5487398;26;20006;-73
2024/04/24 12:44:04;;;;;;;3.20;1.15;;;18.90;47.60;;;;;;5487022;26;20004;-74
2024/04/24 12:46:30;;;;;;;2.90;0.95;;;18.80;47.70;;;;;;5489817;26;20005;-73